Time;durP1;ratioP1;P1;durP2;ratioP2;P2;SDS_P1;SDS_P2;PMS_P1;PMS_P2;Temp;Humidity;BMP_temperature;BMP_pressure;BME280_temperature;BME280_humidity;BME280_pressure;Samples;Min_cycle;Max_cycle;Signal;HPM_P1;HPM_P2
2022/03/02 00:01:09;;;;;;;;;;;-3.20;99.90;;;;;;4168785;28;20588;-56
2022/03/02 00:03:12;;;;;;;;;;;-3.10;99.90;;;;;;4174825;28;19933;-56
2022/03/02 00:05:14;;;;;;;;;;;-3.10;99.90;;;;;;4171679;28;20373;-56
2022/03/02 00:07:16;;;;;;;;;;;-3.00;99.90;;;;;;4178343;28;20400;-57
2022/03/02 00:09:18;;;;;;;;;;;-2.90;99.90;;;;;;4174304;28;19931;-57
2022/03/02 00:11:20;;;;;;;;;;;-2.70;99.90;;;;;;4177046;28;19933;-56
2022/03/02 00:13:22;;;;;;;;;;;-2.60;99.90;;;;;;4178607;28;19931;-56
2022/03/02 00:15:25;;;;;;;;;;;-2.50;99.90;;;;;;4177625;28;20416;-56
2022/03/02 00:17:27;;;;;;;;;;;-2.40;99.90;;;;;;4173951;28;19978;-57
2022/03/02 00:19:29;;;;;;;;;;;-2.40;99.90;;;;;;4177036;28;19990;-56
2022/03/02 00:21:30;;;;;;;;;;;-2.40;99.90;;;;;;4168485;28;20504;-55
2022/03/02 00:23:32;;;;;;;;;;;-2.30;99.90;;;;;;4165264;28;20393;-56
2022/03/02 00:25:34;;;;;;;;;;;-2.10;99.90;;;;;;4164886;28;19964;-56
2022/03/02 00:27:36;;;;;;;;;;;-2.20;99.90;;;;;;4171155;28;19925;-57
2022/03/02 00:29:38;;;;;;;;;;;-2.20;99.90;;;;;;4179655;28;19928;-57
2022/03/02 00:31:40;;;;;;;;;;;-2.20;99.90;;;;;;4165378;28;20333;-57
2022/03/02 00:33:42;;;;;;;;;;;-2.20;99.90;;;;;;4166142;28;19968;-56
2022/03/02 00:35:44;;;;;;;;;;;-2.30;99.90;;;;;;4168258;28;19925;-56
2022/03/02 00:37:46;;;;;;;;;;;-2.30;99.90;;;;;;4178149;28;19929;-56
2022/03/02 00:39:49;;;;;;;;;;;-2.40;99.90;;;;;;4177058;28;19924;-56
2022/03/02 00:41:51;;;;;;;;;;;-2.50;99.90;;;;;;4178981;28;19956;-56
2022/03/02 00:43:53;;;;;;;;;;;-2.50;99.90;;;;;;4174170;28;19931;-56
2022/03/02 00:45:55;;;;;;;;;;;-2.70;99.90;;;;;;4179017;28;19964;-57
2022/03/02 00:47:58;;;;;;;;;;;-2.70;99.90;;;;;;4178183;28;19928;-56
2022/03/02 00:50:00;;;;;;;;;;;-2.80;99.90;;;;;;4175580;28;20380;-57
2022/03/02 00:52:02;;;;;;;;;;;-2.80;99.90;;;;;;4176537;28;19972;-56
2022/03/02 00:54:05;;;;;;;;;;;-2.80;99.90;;;;;;4164544;28;20416;-56
2022/03/02 00:56:09;;;;;;;;;;;-2.80;99.90;;;;;;4171062;28;20329;-56
2022/03/02 00:58:11;;;;;;;;;;;-2.80;99.90;;;;;;4165408;28;19979;-56
2022/03/02 01:00:13;;;;;;;;;;;-2.80;99.90;;;;;;4175253;28;19924;-56
2022/03/02 01:02:15;;;;;;;;;;;-2.90;99.90;;;;;;4175146;28;19935;-54
2022/03/02 01:04:17;;;;;;;;;;;-3.00;99.90;;;;;;4177281;28;20015;-57
2022/03/02 01:06:19;;;;;;;;;;;-3.00;99.90;;;;;;4175777;28;19936;-56
2022/03/02 01:08:21;;;;;;;;;;;-3.00;99.90;;;;;;4172273;28;19929;-56
2022/03/02 01:10:23;;;;;;;;;;;-3.00;99.90;;;;;;4163824;28;19928;-56
2022/03/02 01:12:25;;;;;;;;;;;-3.00;99.90;;;;;;4178996;28;19925;-56
2022/03/02 01:14:27;;;;;;;;;;;-3.10;99.90;;;;;;4173730;28;19925;-56
2022/03/02 01:16:29;;;;;;;;;;;-3.20;99.90;;;;;;4169021;28;19929;-57
2022/03/02 01:18:31;;;;;;;;;;;-3.20;99.90;;;;;;4175242;28;19933;-56
2022/03/02 01:20:34;;;;;;;;;;;-3.20;99.90;;;;;;4178936;28;20023;-56
2022/03/02 01:22:36;;;;;;;;;;;-3.20;99.90;;;;;;4176634;28;19935;-55
2022/03/02 01:24:38;;;;;;;;;;;-3.30;99.90;;;;;;4177297;28;19928;-57
2022/03/02 01:26:40;;;;;;;;;;;-3.30;99.90;;;;;;4176428;28;19942;-55
2022/03/02 01:28:42;;;;;;;;;;;-3.30;99.90;;;;;;4175859;28;19968;-56
2022/03/02 01:30:44;;;;;;;;;;;-3.20;99.90;;;;;;4172582;28;20010;-57
2022/03/02 01:32:46;;;;;;;;;;;-3.10;99.90;;;;;;4169904;28;19932;-56
2022/03/02 01:34:48;;;;;;;;;;;-3.10;99.90;;;;;;4177029;28;19925;-56
2022/03/02 01:36:50;;;;;;;;;;;-3.10;99.90;;;;;;4177364;28;19994;-56
2022/03/02 01:38:52;;;;;;;;;;;-3.10;99.90;;;;;;4176509;28;20632;-55
2022/03/02 01:40:54;;;;;;;;;;;-2.90;99.90;;;;;;4175584;28;19924;-56
2022/03/02 01:42:56;;;;;;;;;;;-2.90;99.90;;;;;;4175779;28;19925;-57
2022/03/02 01:44:58;;;;;;;;;;;-3.00;99.90;;;;;;4177330;28;19929;-56
2022/03/02 01:47:00;;;;;;;;;;;-3.00;99.90;;;;;;4171763;28;19975;-57
2022/03/02 01:49:02;;;;;;;;;;;-3.00;99.90;;;;;;4175521;28;19936;-55
2022/03/02 01:51:04;;;;;;;;;;;-3.00;99.90;;;;;;4173143;28;19925;-55
2022/03/02 01:53:06;;;;;;;;;;;-3.00;99.90;;;;;;4178668;28;19972;-56
2022/03/02 01:55:09;;;;;;;;;;;-2.90;99.90;;;;;;4174939;28;19929;-57
2022/03/02 01:57:10;;;;;;;;;;;-2.70;99.90;;;;;;4175543;28;19928;-56
2022/03/02 01:59:13;;;;;;;;;;;-2.70;99.90;;;;;;4175776;28;19929;-56
2022/03/02 02:01:15;;;;;;;;;;;-2.70;99.90;;;;;;4193503;28;19929;-57
2022/03/02 02:03:18;;;;;;;;;;;-2.80;99.90;;;;;;4166957;28;19972;-57
2022/03/02 02:05:20;;;;;;;;;;;-3.00;99.90;;;;;;4171486;28;19929;-57
2022/03/02 02:07:22;;;;;;;;;;;-3.20;99.90;;;;;;4176523;28;20604;-55
2022/03/02 02:09:25;;;;;;;;;;;-3.40;99.90;;;;;;4177983;28;19924;-57
2022/03/02 02:11:27;;;;;;;;;;;-3.40;99.90;;;;;;4176822;28;19971;-56
2022/03/02 02:13:33;;;;;;;;;;;-3.20;99.90;;;;;;4177429;28;19974;-55
2022/03/02 02:15:36;;;;;;;;;;;-3.20;99.90;;;;;;4179253;28;19925;-55
2022/03/02 02:17:38;;;;;;;;;;;-3.10;99.90;;;;;;4177084;28;22008;-56
2022/03/02 02:19:40;;;;;;;;;;;-3.20;99.90;;;;;;4176156;28;19971;-57
2022/03/02 02:21:42;;;;;;;;;;;-3.30;99.90;;;;;;4170940;28;19925;-56
2022/03/02 02:23:44;;;;;;;;;;;-3.40;99.90;;;;;;4166660;28;19979;-56
2022/03/02 02:25:46;;;;;;;;;;;-3.50;99.90;;;;;;4176509;28;20038;-56
2022/03/02 02:27:49;;;;;;;;;;;-3.50;99.90;;;;;;4174649;28;19952;-57
2022/03/02 02:29:51;;;;;;;;;;;-3.70;99.90;;;;;;4172331;28;19970;-56
2022/03/02 02:31:53;;;;;;;;;;;-3.70;99.90;;;;;;4174982;28;20027;-56
2022/03/02 02:33:56;;;;;;;;;;;-3.60;99.90;;;;;;4177455;28;19932;-56
2022/03/02 02:35:58;;;;;;;;;;;-3.50;99.90;;;;;;4177619;28;20316;-56
2022/03/02 02:38:00;;;;;;;;;;;-3.30;99.90;;;;;;4169059;28;19929;-56
2022/03/02 02:40:06;;;;;;;;;;;-3.00;99.90;;;;;;4167975;28;20664;-55
2022/03/02 02:42:08;;;;;;;;;;;-3.00;99.90;;;;;;4165649;28;19929;-55
2022/03/02 02:44:10;;;;;;;;;;;-3.00;99.90;;;;;;4176354;28;19928;-57
2022/03/02 02:46:13;;;;;;;;;;;-3.00;99.90;;;;;;4174833;28;19924;-56
2022/03/02 02:48:14;;;;;;;;;;;-3.10;99.90;;;;;;4168972;28;19952;-55
2022/03/02 02:50:20;;;;;;;;;;;-3.20;99.90;;;;;;4163543;28;19925;-57
2022/03/02 02:52:22;;;;;;;;;;;-3.40;99.90;;;;;;4177606;28;19994;-57
2022/03/02 02:54:24;;;;;;;;;;;-3.50;99.90;;;;;;4165207;28;20554;-56
2022/03/02 02:56:26;;;;;;;;;;;-3.60;99.90;;;;;;4167463;28;19925;-58
2022/03/02 02:58:28;;;;;;;;;;;-3.50;99.90;;;;;;4163852;28;20478;-56
2022/03/02 03:00:31;;;;;;;;;;;-3.60;99.90;;;;;;4168885;28;20180;-56
2022/03/02 03:02:33;;;;;;;;;;;-3.60;99.90;;;;;;4174904;28;20036;-55
2022/03/02 03:04:35;;;;;;;;;;;-3.60;99.90;;;;;;4175528;28;20020;-57
2022/03/02 03:06:37;;;;;;;;;;;-3.60;99.90;;;;;;4176066;28;19991;-56
2022/03/02 03:08:39;;;;;;;;;;;-3.60;99.90;;;;;;4177511;28;20371;-55
2022/03/02 03:10:42;;;;;;;;;;;-3.50;99.90;;;;;;4174788;28;19971;-56
2022/03/02 03:12:45;;;;;;;;;;;-3.60;99.90;;;;;;4173252;28;19925;-57
2022/03/02 03:14:47;;;;;;;;;;;-3.60;99.90;;;;;;4163473;28;19963;-55
2022/03/02 03:16:48;;;;;;;;;;;-3.60;99.90;;;;;;4165929;28;19975;-55
2022/03/02 03:18:51;;;;;;;;;;;-3.50;99.90;;;;;;4173740;28;19968;-56
2022/03/02 03:20:52;;;;;;;;;;;-3.40;99.90;;;;;;4174296;28;19925;-56
2022/03/02 03:22:55;;;;;;;;;;;-3.40;99.90;;;;;;4171063;28;19929;-56
2022/03/02 03:24:57;;;;;;;;;;;-3.40;99.90;;;;;;4177057;28;19929;-56
2022/03/02 03:26:59;;;;;;;;;;;-3.40;99.90;;;;;;4174338;28;19929;-57
2022/03/02 03:29:01;;;;;;;;;;;-3.30;99.90;;;;;;4174328;28;19929;-56
2022/03/02 03:31:03;;;;;;;;;;;-3.30;99.90;;;;;;4174287;28;20240;-56
2022/03/02 03:33:05;;;;;;;;;;;-3.50;99.90;;;;;;4176686;28;19925;-56
2022/03/02 03:35:08;;;;;;;;;;;-3.60;99.90;;;;;;4170026;28;19983;-56
2022/03/02 03:37:10;;;;;;;;;;;-3.70;99.90;;;;;;4170964;28;20014;-56
2022/03/02 03:39:13;;;;;;;;;;;-3.90;99.90;;;;;;4172201;28;19925;-56
2022/03/02 03:41:15;;;;;;;;;;;-3.90;99.90;;;;;;4179183;28;19936;-55
2022/03/02 03:43:16;;;;;;;;;;;-3.90;99.90;;;;;;4179219;28;19959;-56
2022/03/02 03:45:19;;;;;;;;;;;-3.80;99.90;;;;;;4176445;28;19925;-55
2022/03/02 03:47:21;;;;;;;;;;;-3.80;99.90;;;;;;4177938;28;19931;-57
2022/03/02 03:49:23;;;;;;;;;;;-3.80;99.90;;;;;;4164754;28;19929;-55
2022/03/02 03:51:25;;;;;;;;;;;-3.90;99.90;;;;;;4171331;28;19951;-57
2022/03/02 03:53:27;;;;;;;;;;;-4.00;99.90;;;;;;4174971;28;19956;-56
2022/03/02 03:55:29;;;;;;;;;;;-4.00;99.90;;;;;;4171322;28;19925;-56
2022/03/02 03:57:31;;;;;;;;;;;-4.00;99.90;;;;;;4179546;28;19933;-57
2022/03/02 03:59:33;;;;;;;;;;;-3.90;99.90;;;;;;4177041;28;19925;-56
2022/03/02 04:01:35;;;;;;;;;;;-3.90;99.90;;;;;;4176747;28;19971;-57
2022/03/02 04:03:37;;;;;;;;;;;-3.90;99.90;;;;;;4177361;28;20299;-56
2022/03/02 04:05:39;;;;;;;;;;;-3.80;99.90;;;;;;4179874;28;19968;-55
2022/03/02 04:07:41;;;;;;;;;;;-3.70;99.90;;;;;;4178080;28;20027;-56
2022/03/02 04:09:43;;;;;;;;;;;-3.90;99.90;;;;;;4175814;28;19971;-56
2022/03/02 04:11:45;;;;;;;;;;;-4.00;99.90;;;;;;4177147;28;19964;-56
2022/03/02 04:13:47;;;;;;;;;;;-4.10;99.90;;;;;;4172741;28;20387;-56
2022/03/02 04:15:50;;;;;;;;;;;-4.10;99.90;;;;;;4179172;28;19974;-57
2022/03/02 04:17:52;;;;;;;;;;;-4.30;99.90;;;;;;4175514;28;19975;-56
2022/03/02 04:19:54;;;;;;;;;;;-4.30;99.90;;;;;;4177666;28;19964;-55
2022/03/02 04:21:55;;;;;;;;;;;-4.40;99.90;;;;;;4178359;28;20361;-56
2022/03/02 04:23:58;;;;;;;;;;;-4.40;99.90;;;;;;4182337;28;19974;-56
2022/03/02 04:26:00;;;;;;;;;;;-4.40;99.90;;;;;;4175261;28;19929;-56
2022/03/02 04:28:02;;;;;;;;;;;-4.50;99.90;;;;;;4178122;28;20385;-56
2022/03/02 04:30:06;;;;;;;;;;;-4.50;99.90;;;;;;4178283;28;20439;-56
2022/03/02 04:32:08;;;;;;;;;;;-4.40;99.90;;;;;;4179658;28;19933;-56
2022/03/02 04:34:11;;;;;;;;;;;-4.30;99.90;;;;;;4178218;28;19931;-57
2022/03/02 04:36:13;;;;;;;;;;;-4.30;99.90;;;;;;4177872;28;19929;-55
2022/03/02 04:38:15;;;;;;;;;;;-4.20;99.90;;;;;;4177028;28;19928;-55
2022/03/02 04:40:17;;;;;;;;;;;-4.20;99.90;;;;;;4178507;28;20377;-56
2022/03/02 04:42:19;;;;;;;;;;;-4.10;99.90;;;;;;4176648;28;19931;-57
2022/03/02 04:44:21;;;;;;;;;;;-4.10;99.90;;;;;;4176799;28;20340;-56
2022/03/02 04:46:23;;;;;;;;;;;-4.20;99.90;;;;;;4178945;28;20012;-56
2022/03/02 04:48:25;;;;;;;;;;;-4.30;99.90;;;;;;4179212;28;19925;-56
2022/03/02 04:50:27;;;;;;;;;;;-4.30;99.90;;;;;;4177249;28;19979;-56
2022/03/02 04:52:29;;;;;;;;;;;-4.20;99.90;;;;;;4177614;28;19932;-56
2022/03/02 04:56:53;;;;;;;;;;;-4.40;99.90;;;;;;4164093;28;20007;-57
2022/03/02 04:58:55;;;;;;;;;;;-4.40;99.90;;;;;;4178050;28;19929;-56
2022/03/02 05:00:57;;;;;;;;;;;-4.40;99.90;;;;;;4174676;28;19951;-55
2022/03/02 05:03:00;;;;;;;;;;;-4.50;99.90;;;;;;4168369;28;20015;-56
2022/03/02 05:05:02;;;;;;;;;;;-4.40;99.90;;;;;;4177249;28;20042;-56
2022/03/02 05:07:04;;;;;;;;;;;-4.20;99.90;;;;;;4178632;28;20440;-56
2022/03/02 05:09:06;;;;;;;;;;;-4.10;99.90;;;;;;4174824;28;19935;-56
2022/03/02 05:11:10;;;;;;;;;;;-4.00;99.90;;;;;;4174951;28;20245;-57
2022/03/02 05:13:12;;;;;;;;;;;-4.10;99.90;;;;;;4177802;28;19932;-57
2022/03/02 05:15:15;;;;;;;;;;;-4.10;99.90;;;;;;4177735;28;19928;-56
2022/03/02 05:17:17;;;;;;;;;;;-4.20;99.90;;;;;;4171323;28;19925;-57
2022/03/02 05:19:19;;;;;;;;;;;-4.40;99.90;;;;;;4175155;28;19976;-56
2022/03/02 05:21:21;;;;;;;;;;;-4.50;99.90;;;;;;4173228;28;19933;-55
2022/03/02 05:23:23;;;;;;;;;;;-4.60;99.90;;;;;;4178474;28;19983;-56
2022/03/02 05:25:25;;;;;;;;;;;-4.70;99.90;;;;;;4177457;28;20400;-56
2022/03/02 05:27:27;;;;;;;;;;;-4.80;99.90;;;;;;4177072;28;19955;-56
2022/03/02 05:29:29;;;;;;;;;;;-4.80;99.90;;;;;;4176917;28;19972;-57
2022/03/02 05:31:31;;;;;;;;;;;-4.70;99.90;;;;;;4178946;28;19990;-56
2022/03/02 05:33:33;;;;;;;;;;;-4.60;99.90;;;;;;4176869;28;20024;-57
2022/03/02 05:35:35;;;;;;;;;;;-4.60;99.90;;;;;;4176333;28;19929;-56
2022/03/02 05:37:42;;;;;;;;;;;-4.50;99.90;;;;;;4165164;28;19925;-56
2022/03/02 05:39:45;;;;;;;;;;;-4.60;99.90;;;;;;4168518;28;19925;-56
2022/03/02 05:41:46;;;;;;;;;;;-4.50;99.90;;;;;;4176033;28;19952;-57
2022/03/02 05:43:49;;;;;;;;;;;-4.40;99.90;;;;;;4173982;28;19924;-56
2022/03/02 05:45:51;;;;;;;;;;;-4.50;99.90;;;;;;4178284;28;19995;-56
2022/03/02 05:47:53;;;;;;;;;;;-4.60;99.90;;;;;;4161942;28;19925;-56
2022/03/02 05:49:55;;;;;;;;;;;-4.70;99.90;;;;;;4175842;28;19940;-55
2022/03/02 05:51:57;;;;;;;;;;;-4.80;99.90;;;;;;4176452;28;19936;-54
2022/03/02 05:53:59;;;;;;;;;;;-4.80;99.90;;;;;;4176783;28;20372;-56
2022/03/02 05:56:01;;;;;;;;;;;-4.80;99.90;;;;;;4161996;28;19957;-56
2022/03/02 05:58:05;;;;;;;;;;;-4.80;99.90;;;;;;4175182;28;19929;-56
2022/03/02 06:00:08;;;;;;;;;;;-4.80;99.90;;;;;;4169980;28;19932;-56
2022/03/02 06:02:10;;;;;;;;;;;-4.80;99.90;;;;;;4175257;28;19940;-57
2022/03/02 06:04:12;;;;;;;;;;;-4.70;99.90;;;;;;4178678;28;19933;-56
2022/03/02 06:06:15;;;;;;;;;;;-4.60;99.90;;;;;;4176581;28;20461;-56
2022/03/02 06:08:16;;;;;;;;;;;-4.60;99.90;;;;;;4170464;28;20278;-56
2022/03/02 06:10:19;;;;;;;;;;;-4.60;99.90;;;;;;4164851;28;19959;-56
2022/03/02 06:12:21;;;;;;;;;;;-4.70;99.90;;;;;;4171331;28;19929;-57
2022/03/02 06:14:23;;;;;;;;;;;-4.80;99.90;;;;;;4172771;28;19928;-56
2022/03/02 06:16:25;;;;;;;;;;;-4.80;99.90;;;;;;4170142;28;20087;-55
2022/03/02 06:18:28;;;;;;;;;;;-4.90;99.90;;;;;;4173300;28;19929;-56
2022/03/02 06:20:30;;;;;;;;;;;-4.80;99.90;;;;;;4161442;28;19983;-56
2022/03/02 06:22:32;;;;;;;;;;;-4.70;99.90;;;;;;4174840;28;19936;-56
2022/03/02 06:24:34;;;;;;;;;;;-4.80;99.90;;;;;;4176831;28;19929;-55
2022/03/02 06:26:36;;;;;;;;;;;-4.60;99.90;;;;;;4176211;28;19933;-55
2022/03/02 06:28:38;;;;;;;;;;;-4.70;99.90;;;;;;4167508;28;20225;-54
2022/03/02 06:30:40;;;;;;;;;;;-4.60;99.90;;;;;;4170541;28;20596;-56
2022/03/02 06:32:42;;;;;;;;;;;-4.50;99.90;;;;;;4170668;28;19928;-55
2022/03/02 06:34:44;;;;;;;;;;;-4.40;99.90;;;;;;4167170;28;19925;-56
2022/03/02 06:36:49;;;;;;;;;;;-4.40;99.90;;;;;;4164254;28;19929;-55
2022/03/02 06:38:51;;;;;;;;;;;-4.30;99.90;;;;;;4175997;28;20300;-56
2022/03/02 06:41:12;;;;;;;;;;;-4.40;99.90;;;;;;4174925;28;19925;-55
2022/03/02 06:43:18;;;;;;;;;;;-4.40;99.90;;;;;;4174492;28;19925;-55
2022/03/02 06:45:26;;;;;;;;;;;-4.50;99.90;;;;;;4176422;28;19925;-55
2022/03/02 06:47:40;;;;;;;;;;;-4.50;99.90;;;;;;4163733;28;19931;-56
2022/03/02 06:50:00;;;;;;;;;;;-4.50;99.90;;;;;;4171455;28;19936;-56
2022/03/02 06:52:03;;;;;;;;;;;-4.30;99.90;;;;;;4169875;28;19982;-55
2022/03/02 06:54:08;;;;;;;;;;;-4.20;99.90;;;;;;4167905;28;19925;-56
2022/03/02 06:56:10;;;;;;;;;;;-4.00;99.90;;;;;;4171555;28;20412;-56
2022/03/02 06:58:14;;;;;;;;;;;-3.90;99.90;;;;;;4175496;28;19936;-54
2022/03/02 07:00:16;;;;;;;;;;;-3.90;99.90;;;;;;4165269;28;19929;-56
2022/03/02 07:02:33;;;;;;;;;;;-3.90;99.90;;;;;;4169311;28;19982;-55
2022/03/02 07:04:39;;;;;;;;;;;-3.90;99.90;;;;;;4174546;28;20446;-56
2022/03/02 07:06:42;;;;;;;;;;;-3.90;99.90;;;;;;4166908;28;19925;-56
2022/03/02 07:08:51;;;;;;;;;;;-3.80;99.90;;;;;;4174693;28;20353;-56
2022/03/02 07:10:53;;;;;;;;;;;-3.80;99.90;;;;;;4174520;28;19933;-56
2022/03/02 07:12:55;;;;;;;;;;;-3.70;99.90;;;;;;4169175;28;19956;-56
2022/03/02 07:14:57;;;;;;;;;;;-3.70;99.90;;;;;;4161507;28;20510;-56
2022/03/02 07:17:01;;;;;;;;;;;-3.70;99.90;;;;;;4175022;28;19925;-55
2022/03/02 07:19:03;;;;;;;;;;;-3.60;99.90;;;;;;4173280;28;19929;-55
2022/03/02 07:21:10;;;;;;;;;;;-3.50;99.90;;;;;;4174442;28;20335;-56
2022/03/02 07:23:15;;;;;;;;;;;-3.40;99.90;;;;;;4175955;28;19924;-55
2022/03/02 07:25:21;;;;;;;;;;;-3.30;99.90;;;;;;4169192;28;20364;-55
2022/03/02 07:27:25;;;;;;;;;;;-3.10;99.90;;;;;;4175680;28;19979;-56
2022/03/02 07:29:28;;;;;;;;;;;-3.10;99.90;;;;;;4163738;28;20377;-56
2022/03/02 07:31:30;;;;;;;;;;;-3.00;99.90;;;;;;4165017;28;20592;-56
2022/03/02 07:33:41;;;;;;;;;;;-2.90;99.90;;;;;;4177017;28;20376;-55
2022/03/02 07:35:47;;;;;;;;;;;-2.80;99.90;;;;;;4174158;28;19971;-55
2022/03/02 07:37:49;;;;;;;;;;;-2.70;99.90;;;;;;4167279;28;20362;-56
2022/03/02 07:39:51;;;;;;;;;;;-2.60;99.90;;;;;;4166297;28;19979;-54
2022/03/02 07:41:53;;;;;;;;;;;-2.50;99.90;;;;;;4163643;28;20356;-56
2022/03/02 07:43:55;;;;;;;;;;;-2.40;99.90;;;;;;4170525;28;19979;-55
2022/03/02 07:45:57;;;;;;;;;;;-2.30;99.90;;;;;;4172994;28;19925;-55
2022/03/02 07:47:59;;;;;;;;;;;-2.20;99.90;;;;;;4174832;28;19933;-54
2022/03/02 07:50:01;;;;;;;;;;;-2.00;99.90;;;;;;4176075;28;19925;-54
2022/03/02 07:52:05;;;;;;;;;;;-1.90;99.90;;;;;;4162326;28;19929;-55
2022/03/02 07:54:07;;;;;;;;;;;-1.80;99.90;;;;;;4162547;28;20499;-54
2022/03/02 07:56:10;;;;;;;;;;;-1.70;99.90;;;;;;4163320;28;20390;-54
2022/03/02 07:58:11;;;;;;;;;;;-1.50;99.90;;;;;;4160226;28;20376;-55
2022/03/02 08:00:14;;;;;;;;;;;-1.50;99.90;;;;;;4175667;28;19928;-56
2022/03/02 08:02:16;;;;;;;;;;;-1.40;99.90;;;;;;4173936;28;20035;-55
2022/03/02 08:04:20;;;;;;;;;;;-1.30;99.90;;;;;;4167617;28;20059;-55
2022/03/02 08:06:22;;;;;;;;;;;-1.20;99.90;;;;;;4175338;28;19925;-56
2022/03/02 08:08:24;;;;;;;;;;;-1.20;99.90;;;;;;4175691;28;19932;-55
2022/03/02 08:10:26;;;;;;;;;;;-1.00;99.90;;;;;;4173631;28;19952;-55
2022/03/02 08:12:28;;;;;;;;;;;-1.00;99.90;;;;;;4174246;28;19924;-55
2022/03/02 08:14:31;;;;;;;;;;;-0.80;99.90;;;;;;4173041;28;20732;-55
2022/03/02 08:16:33;;;;;;;;;;;-0.60;99.90;;;;;;4165165;28;19935;-55
2022/03/02 08:18:35;;;;;;;;;;;-0.40;99.90;;;;;;4171280;28;20552;-55
2022/03/02 08:20:44;;;;;;;;;;;-0.30;99.90;;;;;;4166878;28;19929;-56
2022/03/02 08:22:48;;;;;;;;;;;-0.20;99.90;;;;;;4170566;28;19933;-55
2022/03/02 08:24:53;;;;;;;;;;;0.00;99.90;;;;;;4178600;28;19932;-55
2022/03/02 08:26:57;;;;;;;;;;;0.10;99.90;;;;;;4165072;28;19929;-56
2022/03/02 08:29:01;;;;;;;;;;;0.30;99.90;;;;;;4171827;28;19925;-56
2022/03/02 08:31:03;;;;;;;;;;;0.50;99.90;;;;;;4176930;28;20016;-56
2022/03/02 08:33:06;;;;;;;;;;;0.60;99.90;;;;;;4179466;28;19931;-55
2022/03/02 08:35:08;;;;;;;;;;;0.80;99.90;;;;;;4172143;28;19940;-56
2022/03/02 08:37:11;;;;;;;;;;;1.00;99.90;;;;;;4172913;28;20443;-56
2022/03/02 08:39:13;;;;;;;;;;;1.20;99.90;;;;;;4177616;28;20547;-57
2022/03/02 08:41:16;;;;;;;;;;;1.30;99.90;;;;;;4176484;28;19925;-55
2022/03/02 08:43:18;;;;;;;;;;;1.40;99.90;;;;;;4177838;28;19928;-55
2022/03/02 08:45:21;;;;;;;;;;;1.50;99.90;;;;;;4177133;28;19975;-56
2022/03/02 08:47:24;;;;;;;;;;;1.70;99.90;;;;;;4175869;28;19972;-56
2022/03/02 08:49:25;;;;;;;;;;;1.70;99.90;;;;;;4163921;28;19929;-55
2022/03/02 08:51:28;;;;;;;;;;;1.90;99.90;;;;;;4178427;28;20404;-56
2022/03/02 08:53:34;;;;;;;;;;;2.00;99.90;;;;;;4176738;28;20023;-57
2022/03/02 08:55:36;;;;;;;;;;;2.20;99.90;;;;;;4177412;28;19929;-56
2022/03/02 08:57:42;;;;;;;;;;;2.30;99.90;;;;;;4177837;28;19982;-56
2022/03/02 08:59:44;;;;;;;;;;;2.40;99.90;;;;;;4178322;28;19928;-56
2022/03/02 09:01:50;;;;;;;;;;;2.60;99.90;;;;;;4176113;28;19928;-56
2022/03/02 09:03:53;;;;;;;;;;;2.70;99.90;;;;;;4177220;28;20294;-56
2022/03/02 09:05:55;;;;;;;;;;;2.90;99.90;;;;;;4176573;28;19971;-57
2022/03/02 09:07:57;;;;;;;;;;;3.10;98.90;;;;;;4173381;28;19925;-55
2022/03/02 09:10:00;;;;;;;;;;;3.30;98.60;;;;;;4176350;28;19967;-57
2022/03/02 09:12:03;;;;;;;;;;;3.60;98.90;;;;;;4176310;28;20023;-56
2022/03/02 09:14:05;;;;;;;;;;;3.70;97.90;;;;;;4176969;28;20020;-56
2022/03/02 09:16:07;;;;;;;;;;;3.80;97.00;;;;;;4179172;28;19929;-57
2022/03/02 09:18:10;;;;;;;;;;;4.10;98.10;;;;;;4176403;28;19935;-57
2022/03/02 09:20:12;;;;;;;;;;;4.40;95.90;;;;;;4178040;28;19960;-57
2022/03/02 09:22:14;;;;;;;;;;;4.50;95.10;;;;;;4177382;28;20442;-57
2022/03/02 09:24:17;;;;;;;;;;;4.60;94.60;;;;;;4162774;28;19995;-57
2022/03/02 09:26:19;;;;;;;;;;;4.70;94.20;;;;;;4177425;28;20364;-57
2022/03/02 09:28:21;;;;;;;;;;;4.90;94.00;;;;;;4176232;28;19928;-57
2022/03/02 09:30:23;;;;;;;;;;;4.90;93.00;;;;;;4167709;28;20188;-57
2022/03/02 09:32:25;;;;;;;;;;;5.10;93.20;;;;;;4178740;28;19925;-57
2022/03/02 09:34:29;;;;;;;;;;;5.20;92.60;;;;;;4176245;28;19929;-56
2022/03/02 09:36:33;;;;;;;;;;;5.50;92.00;;;;;;4174497;28;19983;-57
2022/03/02 09:38:36;;;;;;;;;;;5.60;92.00;;;;;;4176291;28;19925;-57
2022/03/02 09:40:41;;;;;;;;;;;5.80;90.90;;;;;;4178448;28;19955;-56
2022/03/02 09:42:48;;;;;;;;;;;6.00;91.80;;;;;;4176731;28;19928;-57
2022/03/02 09:44:52;;;;;;;;;;;6.30;92.00;;;;;;4173630;28;19990;-58
2022/03/02 09:46:57;;;;;;;;;;;6.30;91.10;;;;;;4167662;28;19994;-57
2022/03/02 09:49:09;;;;;;;;;;;6.30;89.50;;;;;;4175936;28;19943;-58
2022/03/02 09:51:17;;;;;;;;;;;6.40;87.60;;;;;;4178221;28;20286;-57
2022/03/02 09:53:22;;;;;;;;;;;6.50;84.70;;;;;;4175940;28;19929;-57
2022/03/02 09:55:24;;;;;;;;;;;6.50;82.60;;;;;;4175635;28;20023;-57
2022/03/02 09:57:27;;;;;;;;;;;6.70;81.50;;;;;;4175825;28;19948;-56
2022/03/02 09:59:32;;;;;;;;;;;7.00;82.80;;;;;;4162819;28;19932;-58
2022/03/02 10:01:35;;;;;;;;;;;7.20;80.70;;;;;;4177594;28;19975;-58
2022/03/02 10:03:38;;;;;;;;;;;7.40;78.50;;;;;;4176684;28;19987;-58
2022/03/02 10:05:43;;;;;;;;;;;7.60;79.00;;;;;;4173881;28;19971;-57
2022/03/02 10:08:05;;;;;;;;;;;7.90;77.00;;;;;;4169692;28;19932;-58
2022/03/02 10:10:11;;;;;;;;;;;8.00;74.80;;;;;;4160689;28;19951;-57
2022/03/02 10:12:14;;;;;;;;;;;8.00;74.00;;;;;;4175660;28;20439;-58
2022/03/02 10:14:20;;;;;;;;;;;8.30;78.80;;;;;;4175388;28;19928;-58
2022/03/02 10:16:27;;;;;;;;;;;8.70;74.70;;;;;;4174059;28;19960;-57
2022/03/02 10:18:32;;;;;;;;;;;8.90;74.60;;;;;;4170149;28;20419;-59
2022/03/02 10:20:35;;;;;;;;;;;9.20;80.00;;;;;;4168644;28;20052;-56
2022/03/02 10:22:40;;;;;;;;;;;9.60;75.10;;;;;;4173344;28;19972;-57
2022/03/02 10:24:48;;;;;;;;;;;9.60;72.20;;;;;;4168534;28;19968;-59
2022/03/02 10:26:50;;;;;;;;;;;9.60;71.20;;;;;;4173168;28;19932;-59
2022/03/02 10:29:00;;;;;;;;;;;9.80;66.80;;;;;;4177992;28;19931;-59
2022/03/02 10:31:22;;;;;;;;;;;10.00;69.60;;;;;;4176206;28;19971;-58
2022/03/02 10:33:25;;;;;;;;;;;10.10;68.80;;;;;;4167960;28;20380;-59
2022/03/02 10:35:28;;;;;;;;;;;10.30;68.60;;;;;;4167678;28;20446;-58
2022/03/02 10:37:37;;;;;;;;;;;10.40;68.40;;;;;;4163399;28;20457;-58
2022/03/02 10:39:58;;;;;;;;;;;10.40;63.60;;;;;;4177569;28;19928;-59
2022/03/02 10:42:03;;;;;;;;;;;10.60;63.10;;;;;;4163410;28;19925;-59
2022/03/02 10:44:15;;;;;;;;;;;10.70;63.80;;;;;;4172188;28;19928;-58
2022/03/02 10:46:19;;;;;;;;;;;10.50;63.20;;;;;;4174352;28;19925;-58
2022/03/02 10:48:42;;;;;;;;;;;10.50;66.10;;;;;;4176028;28;19931;-59
2022/03/02 10:50:44;;;;;;;;;;;10.50;63.50;;;;;;4170181;28;20428;-59
2022/03/02 10:52:47;;;;;;;;;;;11.10;64.90;;;;;;4164671;28;20293;-60
2022/03/02 10:54:49;;;;;;;;;;;11.30;61.50;;;;;;4164734;28;20379;-59
2022/03/02 10:56:55;;;;;;;;;;;11.40;62.00;;;;;;4172707;28;19983;-58
2022/03/02 10:58:57;;;;;;;;;;;11.20;59.60;;;;;;4175601;28;20349;-59
2022/03/02 11:00:59;;;;;;;;;;;10.90;59.00;;;;;;4163194;28;19932;-59
2022/03/02 11:03:02;;;;;;;;;;;11.10;60.60;;;;;;4168192;28;19935;-59
2022/03/02 11:05:05;;;;;;;;;;;10.80;58.90;;;;;;4167102;28;19929;-58
2022/03/02 11:07:07;;;;;;;;;;;11.30;62.30;;;;;;4171081;28;19929;-59
2022/03/02 11:09:25;;;;;;;;;;;11.50;61.40;;;;;;4170889;28;19929;-59
2022/03/02 11:11:27;;;;;;;;;;;11.30;61.00;;;;;;4169712;28;19947;-59
2022/03/02 11:13:29;;;;;;;;;;;11.30;59.70;;;;;;4164778;28;19925;-60
2022/03/02 11:16:03;;;;;;;;;;;11.80;58.50;;;;;;4165979;28;19925;-59
2022/03/02 11:18:05;;;;;;;;;;;11.50;57.70;;;;;;4116754;28;19972;-59
2022/03/02 11:20:09;;;;;;;;;;;11.70;58.60;;;;;;4123761;28;20411;-58
2022/03/02 11:22:16;;;;;;;;;;;11.30;56.00;;;;;;4123547;28;19972;-58
2022/03/02 11:24:20;;;;;;;;;;;11.40;55.90;;;;;;4123558;28;19941;-59
2022/03/02 11:26:24;;;;;;;;;;;11.00;53.40;;;;;;4120230;28;19926;-59
2022/03/02 11:28:26;;;;;;;;;;;11.50;58.20;;;;;;4119402;28;19945;-58
2022/03/02 11:30:28;;;;;;;;;;;11.50;54.70;;;;;;4120980;28;19929;-58
2022/03/02 11:32:31;;;;;;;;;;;11.50;54.20;;;;;;4123148;28;19965;-59
2022/03/02 11:34:41;;;;;;;;;;;11.60;57.30;;;;;;4124707;28;20492;-59
2022/03/02 11:36:45;;;;;;;;;;;11.60;56.90;;;;;;4121934;28;19962;-59
2022/03/02 11:38:51;;;;;;;;;;;11.70;57.40;;;;;;4120254;28;21045;-59
2022/03/02 11:40:53;;;;;;;;;;;11.30;56.00;;;;;;4123476;28;19933;-59
2022/03/02 11:42:55;;;;;;;;;;;11.70;56.00;;;;;;4125381;28;19929;-59
2022/03/02 11:44:59;;;;;;;;;;;11.40;56.80;;;;;;4122957;28;20337;-58
2022/03/02 11:47:03;;;;;;;;;;;11.30;58.10;;;;;;4123673;28;19926;-59
2022/03/02 11:49:05;;;;;;;;;;;11.80;57.70;;;;;;4123571;28;19934;-58
2022/03/02 11:51:10;;;;;;;;;;;12.20;55.20;;;;;;4125369;28;19953;-60
2022/03/02 11:53:12;;;;;;;;;;;12.10;56.90;;;;;;4117641;28;19938;-58
2022/03/02 11:55:19;;;;;;;;;;;12.20;55.90;;;;;;4170822;28;19952;-59
2022/03/02 11:57:26;;;;;;;;;;;12.10;57.90;;;;;;4171438;28;19938;-58
2022/03/02 11:59:29;;;;;;;;;;;12.00;57.50;;;;;;4161961;28;19956;-60
2022/03/02 12:01:42;;;;;;;;;;;12.00;58.90;;;;;;4169118;28;20300;-64